Time;durP1;ratioP1;P1;durP2;ratioP2;P2;SDS_P1;SDS_P2;PMS_P1;PMS_P2;Temp;Humidity;BMP_temperature;BMP_pressure;BME280_temperature;BME280_humidity;BME280_pressure;Samples;Min_cycle;Max_cycle;Signal;HPM_P1;HPM_P2
2021/01/21 00:00:47;;;;;;;17.87;16.17;;;3.20;99.90;;;;;;6089794;23;20439;-78
2021/01/21 00:03:13;;;;;;;18.70;16.30;;;3.20;99.90;;;;;;6089589;23;20938;-79
2021/01/21 00:05:39;;;;;;;17.53;15.90;;;3.30;99.90;;;;;;6089675;23;20415;-78
2021/01/21 00:08:06;;;;;;;18.67;15.80;;;3.30;99.90;;;;;;6066868;23;20873;-78
2021/01/21 00:10:32;;;;;;;16.67;15.07;;;3.40;99.90;;;;;;6064910;23;20426;-78
2021/01/21 00:13:00;;;;;;;16.30;14.80;;;3.50;99.90;;;;;;6089436;23;20764;-78
2021/01/21 00:15:26;;;;;;;14.40;13.10;;;3.60;99.90;;;;;;6067621;23;20401;-79
2021/01/21 00:17:52;;;;;;;13.90;12.60;;;3.80;99.90;;;;;;6089833;23;20423;-79
2021/01/21 00:20:19;;;;;;;13.00;12.00;;;3.90;99.90;;;;;;6089481;23;20494;-79
2021/01/21 00:22:45;;;;;;;12.17;11.20;;;4.10;99.90;;;;;;6089459;23;20938;-79
2021/01/21 00:25:12;;;;;;;10.43;9.73;;;4.40;99.90;;;;;;6089753;23;20415;-79
2021/01/21 00:27:38;;;;;;;10.17;9.57;;;4.70;99.90;;;;;;6065554;23;20446;-79
2021/01/21 00:30:08;;;;;;;9.43;8.93;;;4.90;99.90;;;;;;6065253;23;20792;-78
2021/01/21 00:32:34;;;;;;;9.93;9.33;;;5.00;99.90;;;;;;6067398;23;20515;-79
2021/01/21 00:35:01;;;;;;;10.50;9.80;;;4.90;99.90;;;;;;6067495;23;20171;-79
2021/01/21 00:37:27;;;;;;;10.03;9.43;;;4.90;99.90;;;;;;6066942;23;20171;-79
2021/01/21 00:39:53;;;;;;;10.10;9.40;;;4.90;99.90;;;;;;6065629;23;20437;-79
2021/01/21 00:42:20;;;;;;;10.10;9.40;;;4.80;99.90;;;;;;6067202;23;20175;-79
2021/01/21 00:44:46;;;;;;;10.13;9.43;;;4.80;99.90;;;;;;6065610;23;20450;-79
2021/01/21 00:47:14;;;;;;;11.63;10.73;;;4.80;99.90;;;;;;6067538;23;20406;-79
2021/01/21 00:49:40;;;;;;;13.43;12.20;;;4.60;99.90;;;;;;6066748;23;20190;-79
2021/01/21 00:52:07;;;;;;;13.07;11.97;;;4.40;99.90;;;;;;6089758;23;20182;-79
2021/01/21 00:54:34;;;;;;;15.50;13.87;;;4.30;99.90;;;;;;6089434;23;20418;-78
2021/01/21 00:57:01;;;;;;;14.33;13.17;;;4.10;99.90;;;;;;6065591;23;20447;-79
2021/01/21 00:59:27;;;;;;;14.47;13.27;;;4.00;99.90;;;;;;6066018;23;20199;-79
2021/01/21 01:01:53;;;;;;;14.87;13.53;;;4.00;99.90;;;;;;6067307;23;20179;-79
2021/01/21 01:04:22;;;;;;;13.83;12.63;;;4.00;99.90;;;;;;6067408;23;20190;-78
2021/01/21 01:06:50;;;;;;;13.90;12.70;;;4.00;99.90;;;;;;6091211;23;20419;-79
2021/01/21 01:09:17;;;;;;;13.33;12.23;;;4.00;99.90;;;;;;6090717;23;20775;-79
2021/01/21 01:11:44;;;;;;;12.93;11.90;;;4.00;99.90;;;;;;6091308;23;20425;-79
2021/01/21 01:14:10;;;;;;;12.23;11.33;;;4.00;99.90;;;;;;6091218;23;20414;-79
2021/01/21 01:16:37;;;;;;;12.20;11.30;;;4.10;99.90;;;;;;6091064;23;20443;-79
2021/01/21 01:19:07;;;;;;;11.73;10.83;;;4.20;99.90;;;;;;6090841;23;20477;-79
2021/01/21 01:21:35;;;;;;;10.90;10.20;;;4.20;99.90;;;;;;6091507;23;20501;-79
2021/01/21 01:24:01;;;;;;;11.67;10.67;;;4.30;99.90;;;;;;6091201;23;20512;-79
2021/01/21 01:26:28;;;;;;;10.70;9.90;;;4.30;99.90;;;;;;6068738;23;20398;-79
2021/01/21 01:29:04;;;;;;;11.30;10.50;;;4.40;99.90;;;;;;6066887;23;20441;-79
2021/01/21 01:31:30;;;;;;;10.70;10.00;;;4.40;99.90;;;;;;6091372;23;20430;-79
2021/01/21 01:33:57;;;;;;;10.77;9.97;;;4.40;99.90;;;;;;6091402;23;20414;-79
2021/01/21 01:36:24;;;;;;;10.80;9.97;;;4.40;99.90;;;;;;6066982;23;20426;-79
2021/01/21 01:38:52;;;;;;;10.57;9.87;;;4.50;99.90;;;;;;6066733;23;20425;-79
2021/01/21 01:41:38;;;;;;;10.90;10.10;;;4.50;99.90;;;;;;6068291;23;20439;-79
2021/01/21 01:44:05;;;;;;;10.30;9.70;;;4.50;99.90;;;;;;6090684;23;20985;-79
2021/01/21 01:46:32;;;;;;;10.27;9.57;;;4.60;99.90;;;;;;6066920;23;20504;-79
2021/01/21 01:48:59;;;;;;;9.80;9.20;;;4.60;99.90;;;;;;6066594;23;20430;-79
2021/01/21 01:51:30;;;;;;;10.27;9.57;;;4.60;99.90;;;;;;6066777;23;20898;-79
2021/01/21 01:53:59;;;;;;;10.00;9.40;;;4.60;99.90;;;;;;6066746;23;20912;-79
2021/01/21 01:56:30;;;;;;;10.93;10.10;;;4.60;99.90;;;;;;6066765;23;20410;-79
2021/01/21 01:59:05;;;;;;;11.13;10.23;;;4.60;99.90;;;;;;6068075;23;20442;-79
2021/01/21 02:01:41;;;;;;;10.63;9.90;;;4.70;99.90;;;;;;6091480;23;20474;-79
2021/01/21 02:04:15;;;;;;;11.10;10.30;;;4.70;99.90;;;;;;6066659;23;20446;-78
2021/01/21 02:07:02;;;;;;;10.40;9.70;;;4.70;99.90;;;;;;6058534;23;20434;-79
2021/01/21 02:09:31;;;;;;;10.00;9.33;;;4.70;99.90;;;;;;6066314;23;20443;-79
2021/01/21 02:12:22;;;;;;;10.77;9.97;;;4.90;99.90;;;;;;6066571;23;20228;-78
2021/01/21 02:14:59;;;;;;;10.67;9.90;;;5.00;99.90;;;;;;6066823;23;20177;-79
2021/01/21 02:17:35;;;;;;;14.20;12.90;;;5.10;99.90;;;;;;6066966;23;20182;-79
2021/01/21 02:20:22;;;;;;;13.17;12.10;;;4.80;99.90;;;;;;6066469;23;20222;-79
2021/01/21 02:23:33;;;;;;;14.37;13.07;;;4.50;99.90;;;;;;6066617;23;20556;-79
2021/01/21 02:26:05;;;;;;;13.43;12.43;;;4.30;99.90;;;;;;6039819;23;20818;-79
2021/01/21 02:28:51;;;;;;;13.83;12.73;;;4.30;99.90;;;;;;6090428;23;20817;-79
2021/01/21 02:31:28;;;;;;;12.33;11.23;;;4.20;99.90;;;;;;6090663;23;20478;-78
2021/01/21 02:34:04;;;;;;;12.90;11.80;;;4.20;99.90;;;;;;6090949;23;20445;-79
2021/01/21 02:36:36;;;;;;;12.57;11.57;;;4.10;99.90;;;;;;6066698;23;20418;-79
2021/01/21 02:39:10;;;;;;;11.70;10.80;;;4.10;99.90;;;;;;6090159;23;20426;-78
2021/01/21 02:41:37;;;;;;;12.17;11.17;;;4.10;99.90;;;;;;6090534;23;20411;-79
2021/01/21 02:44:07;;;;;;;11.67;10.87;;;4.10;99.90;;;;;;6066708;23;20815;-79
2021/01/21 02:46:33;;;;;;;11.63;10.83;;;4.10;99.90;;;;;;6067431;23;20395;-79
2021/01/21 02:49:01;;;;;;;11.27;10.47;;;4.10;99.90;;;;;;6090364;23;20422;-79
2021/01/21 02:51:33;;;;;;;11.70;10.80;;;4.10;99.90;;;;;;6090365;23;20411;-79
2021/01/21 02:54:22;;;;;;;12.63;11.57;;;4.20;99.90;;;;;;6066522;23;20471;-79
2021/01/21 02:56:52;;;;;;;11.97;11.07;;;4.20;99.90;;;;;;6066371;23;20844;-79
2021/01/21 02:59:20;;;;;;;11.93;11.10;;;4.20;99.90;;;;;;6090331;23;20423;-79
2021/01/21 03:01:49;;;;;;;11.57;10.67;;;4.20;99.90;;;;;;6089977;23;20446;-79
2021/01/21 03:04:23;;;;;;;10.87;10.07;;;4.30;99.90;;;;;;6090035;23;20446;-79
2021/01/21 03:06:50;;;;;;;10.97;10.17;;;4.30;99.90;;;;;;6068239;23;20408;-79
2021/01/21 03:09:31;;;;;;;11.40;10.70;;;4.40;99.90;;;;;;6089681;23;20435;-79
2021/01/21 03:12:16;;;;;;;12.17;11.17;;;4.40;99.90;;;;;;6090172;23;20900;-79
2021/01/21 03:14:42;;;;;;;11.40;10.60;;;4.60;99.90;;;;;;6090069;23;20402;-79
2021/01/21 03:17:09;;;;;;;10.57;9.87;;;4.70;99.90;;;;;;6065907;23;20422;-79
2021/01/21 03:19:40;;;;;;;10.80;10.10;;;4.90;99.90;;;;;;6065859;23;20430;-79
2021/01/21 03:22:06;;;;;;;10.43;9.77;;;5.00;99.90;;;;;;6089501;23;20487;-79
2021/01/21 03:24:36;;;;;;;10.53;9.90;;;5.00;99.90;;;;;;6065777;23;20763;-79
2021/01/21 03:27:09;;;;;;;10.10;9.40;;;5.00;99.90;;;;;;6065476;23;20697;-79
2021/01/21 03:29:36;;;;;;;11.13;10.33;;;5.00;99.90;;;;;;6065406;23;21013;-79
2021/01/21 03:32:03;;;;;;;11.23;10.43;;;4.90;99.90;;;;;;6066262;23;20215;-79
2021/01/21 03:34:46;;;;;;;10.93;10.23;;;4.80;99.90;;;;;;6065826;23;20181;-79
2021/01/21 03:37:13;;;;;;;10.80;10.00;;;4.80;99.90;;;;;;6065495;23;20419;-78
2021/01/21 03:39:43;;;;;;;11.00;10.20;;;4.90;99.90;;;;;;6065029;23;20431;-79
2021/01/21 03:42:25;;;;;;;10.40;9.70;;;5.00;99.90;;;;;;6066081;23;20444;-77
2021/01/21 03:45:09;;;;;;;10.40;9.80;;;5.20;99.90;;;;;;6065585;23;20402;-79
2021/01/21 03:47:36;;;;;;;10.50;9.90;;;5.40;99.90;;;;;;6066046;23;20429;-78
2021/01/21 03:50:07;;;;;;;10.23;9.53;;;5.70;99.90;;;;;;6068744;23;20658;-78
2021/01/21 03:52:36;;;;;;;9.73;9.13;;;5.90;99.90;;;;;;6069418;23;20234;-78
2021/01/21 03:55:08;;;;;;;10.83;10.03;;;6.20;99.90;;;;;;6068228;23;20584;-78
2021/01/21 03:57:34;;;;;;;11.67;10.67;;;6.40;99.90;;;;;;6068885;23;20199;-77
2021/01/21 04:00:22;;;;;;;10.93;10.23;;;6.60;99.90;;;;;;6090587;23;20198;-77
2021/01/21 04:02:51;;;;;;;10.20;9.50;;;6.70;99.90;;;;;;6066762;23;20198;-77
2021/01/21 04:05:31;;;;;;;11.40;10.50;;;6.80;99.90;;;;;;6067022;23;20571;-78
2021/01/21 04:07:58;;;;;;;11.43;10.43;;;7.00;99.90;;;;;;6091473;23;20174;-77
2021/01/21 04:10:26;;;;;;;11.70;10.70;;;7.00;99.90;;;;;;6090426;23;20327;-77
2021/01/21 04:13:04;;;;;;;12.53;11.43;;;7.20;99.90;;;;;;6066276;23;20216;-76
2021/01/21 04:15:31;;;;;;;13.30;12.20;;;7.30;99.90;;;;;;6067742;23;20167;-77
2021/01/21 04:17:58;;;;;;;14.37;11.43;;;7.30;99.90;;;;;;6090716;23;20179;-76
2021/01/21 04:20:25;;;;;;;12.03;11.13;;;7.50;99.90;;;;;;6090201;23;20226;-82
2021/01/21 04:22:56;;;;;;;13.00;11.60;;;7.50;99.90;;;;;;6089883;23;20282;-80
2021/01/21 04:25:23;;;;;;;11.70;10.80;;;7.50;99.90;;;;;;6065760;23;20179;-77
2021/01/21 04:27:54;;;;;;;11.20;10.40;;;7.50;99.90;;;;;;6066262;23;20271;-77
2021/01/21 04:30:23;;;;;;;5.17;4.67;;;7.40;99.90;;;;;;6088226;23;20288;-76
2021/01/21 04:32:52;;;;;;;4.60;3.10;;;7.40;99.90;;;;;;6065113;23;20523;-78
2021/01/21 04:35:19;;;;;;;3.63;3.10;;;7.40;99.90;;;;;;6065545;23;20183;-79
2021/01/21 04:37:49;;;;;;;3.00;2.43;;;7.40;99.90;;;;;;6065981;23;20527;-77
2021/01/21 04:40:25;;;;;;;4.03;2.50;;;7.40;99.90;;;;;;6065964;23;20199;-77
2021/01/21 04:43:08;;;;;;;2.90;2.40;;;7.40;99.90;;;;;;6067016;23;20195;-76
2021/01/21 04:45:34;;;;;;;2.70;2.50;;;7.40;99.90;;;;;;6070563;23;20626;-76
2021/01/21 04:48:01;;;;;;;2.50;2.30;;;7.50;99.90;;;;;;6070610;23;20232;-77
2021/01/21 04:50:35;;;;;;;2.57;2.37;;;7.50;99.90;;;;;;6070692;23;20222;-76
2021/01/21 04:53:16;;;;;;;2.50;2.40;;;7.50;99.90;;;;;;6070694;23;20193;-77
2021/01/21 04:55:57;;;;;;;2.50;2.30;;;7.50;99.90;;;;;;6070397;23;20169;-76
2021/01/21 04:58:48;;;;;;;2.33;2.20;;;7.40;99.90;;;;;;6071606;23;20301;-76
2021/01/21 05:01:15;;;;;;;2.40;2.30;;;7.50;99.90;;;;;;6070018;23;20207;-76
2021/01/21 05:03:42;;;;;;;2.10;2.00;;;7.50;99.90;;;;;;6070321;23;20252;-76
2021/01/21 05:06:28;;;;;;;3.10;2.40;;;7.60;99.90;;;;;;6071476;23;20275;-77
2021/01/21 05:09:02;;;;;;;2.40;2.20;;;7.60;99.90;;;;;;6069767;23;20197;-77
2021/01/21 05:11:31;;;;;;;2.40;2.20;;;7.70;99.90;;;;;;6069870;23;20658;-77
2021/01/21 05:14:17;;;;;;;2.20;2.00;;;7.70;99.90;;;;;;6069725;23;20200;-78
2021/01/21 05:17:02;;;;;;;7.33;6.87;;;7.70;99.90;;;;;;6071470;23;20180;-77
2021/01/21 05:19:55;;;;;;;2.40;2.30;;;7.80;99.90;;;;;;6069091;23;20276;-77
2021/01/21 05:22:41;;;;;;;9.03;8.43;;;7.90;99.90;;;;;;6072952;23;20172;-77
2021/01/21 05:25:19;;;;;;;2.60;2.40;;;8.00;99.90;;;;;;6074584;23;20165;-77
2021/01/21 05:27:58;;;;;;;2.57;2.37;;;8.20;99.90;;;;;;6073260;23;20251;-77
2021/01/21 05:30:45;;;;;;;2.50;2.30;;;8.20;99.90;;;;;;6069378;23;20289;-78
2021/01/21 05:33:14;;;;;;;8.27;7.77;;;8.30;99.90;;;;;;6072733;23;20176;-77
2021/01/21 05:35:52;;;;;;;5.43;5.13;;;8.30;99.90;;;;;;6071352;23;20179;-78
2021/01/21 05:38:20;;;;;;;5.60;5.30;;;8.30;99.90;;;;;;6071736;23;20253;-78
2021/01/21 05:41:09;;;;;;;7.00;6.60;;;8.30;99.90;;;;;;6071225;23;20698;-78
2021/01/21 05:43:55;;;;;;;7.70;7.00;;;8.30;99.90;;;;;;6068791;23;20240;-77
2021/01/21 05:46:44;;;;;;;6.43;6.03;;;8.20;99.90;;;;;;6068433;23;20645;-78
2021/01/21 05:49:12;;;;;;;7.93;7.53;;;8.20;99.90;;;;;;6067038;23;20204;-78
2021/01/21 05:51:40;;;;;;;5.17;4.83;;;8.10;99.90;;;;;;6066956;23;20201;-78
2021/01/21 05:54:18;;;;;;;4.30;4.00;;;8.20;99.90;;;;;;6067747;23;20192;-78
2021/01/21 05:56:54;;;;;;;3.27;2.97;;;8.20;99.90;;;;;;6068471;23;20182;-78
2021/01/21 05:59:23;;;;;;;9.83;9.23;;;8.30;99.90;;;;;;6070308;23;20264;-78
2021/01/21 06:01:57;;;;;;;4.20;4.00;;;8.30;99.90;;;;;;6071572;23;20631;-78
2021/01/21 06:04:29;;;;;;;4.17;3.97;;;8.30;99.90;;;;;;6071602;23;20201;-78
2021/01/21 06:06:57;;;;;;;2.60;2.50;;;8.40;99.90;;;;;;6073073;23;20173;-78
2021/01/21 06:09:27;;;;;;;4.17;3.97;;;8.40;99.90;;;;;;6071964;23;20180;-78
2021/01/21 06:11:57;;;;;;;5.87;5.47;;;8.40;99.90;;;;;;6070797;23;20197;-78
2021/01/21 06:14:24;;;;;;;5.10;4.70;;;8.40;99.90;;;;;;6071804;23;20173;-78
2021/01/21 06:16:51;;;;;;;8.60;8.10;;;8.40;99.90;;;;;;6071286;23;20186;-78
2021/01/21 06:19:19;;;;;;;5.60;5.30;;;8.60;99.90;;;;;;6071458;23;20173;-78
2021/01/21 06:21:57;;;;;;;9.10;8.60;;;8.70;99.90;;;;;;6070852;23;20242;-77
2021/01/21 06:24:43;;;;;;;5.43;5.07;;;8.90;99.90;;;;;;6071638;23;20194;-77
2021/01/21 06:27:10;;;;;;;11.20;10.43;;;8.90;99.90;;;;;;6070826;23;20209;-78
2021/01/21 06:29:38;;;;;;;3.03;2.83;;;9.00;99.90;;;;;;6071772;23;20173;-78
2021/01/21 06:32:08;;;;;;;3.57;3.27;;;9.00;99.90;;;;;;6071525;23;20180;-78
2021/01/21 06:34:38;;;;;;;4.30;4.10;;;9.00;99.90;;;;;;6072144;23;20213;-78
2021/01/21 06:37:13;;;;;;;7.90;7.17;;;9.00;99.90;;;;;;6070934;23;20229;-78
2021/01/21 06:39:51;;;;;;;4.30;3.90;;;9.00;99.90;;;;;;6070640;23;20614;-77
2021/01/21 06:42:20;;;;;;;2.83;2.63;;;9.00;99.90;;;;;;6072576;23;20158;-78
2021/01/21 06:44:50;;;;;;;2.07;1.97;;;9.00;99.90;;;;;;6070639;23;20197;-78
2021/01/21 06:47:18;;;;;;;8.50;8.00;;;9.10;99.90;;;;;;6072696;23;20186;-78
2021/01/21 06:49:46;;;;;;;7.30;6.90;;;9.10;99.90;;;;;;6072576;23;20176;-78
2021/01/21 06:52:13;;;;;;;8.87;8.27;;;9.10;99.90;;;;;;6072535;23;20509;-78
2021/01/21 06:54:40;;;;;;;8.33;7.83;;;9.20;99.90;;;;;;6070981;23;20206;-77
2021/01/21 06:57:45;;;;;;;9.20;8.70;;;9.20;99.90;;;;;;6070264;23;20568;-78
2021/01/21 07:00:15;;;;;;;10.17;9.37;;;9.30;99.90;;;;;;6071937;23;20194;-78
2021/01/21 07:02:44;;;;;;;9.67;8.97;;;9.30;99.90;;;;;;6071860;23;20162;-78
2021/01/21 07:05:11;;;;;;;9.77;9.07;;;9.40;99.90;;;;;;6071904;23;20688;-78
2021/01/21 07:08:00;;;;;;;9.43;8.80;;;9.40;99.90;;;;;;6072142;23;20175;-78
2021/01/21 07:10:29;;;;;;;8.90;8.30;;;9.40;99.90;;;;;;6070802;23;20208;-77
2021/01/21 07:12:57;;;;;;;8.90;8.30;;;9.40;99.90;;;;;;6071511;23;20194;-78
2021/01/21 07:15:33;;;;;;;9.20;8.50;;;9.40;99.90;;;;;;6071272;23;20225;-78
2021/01/21 07:18:04;;;;;;;8.70;8.20;;;9.40;99.90;;;;;;6069478;23;20240;-78
2021/01/21 07:20:32;;;;;;;8.60;8.10;;;9.40;99.90;;;;;;6069699;23;20195;-78
2021/01/21 07:23:03;;;;;;;8.27;7.77;;;9.40;99.90;;;;;;6069939;23;20178;-78
2021/01/21 07:25:31;;;;;;;8.10;7.70;;;9.30;99.90;;;;;;6070857;23;20155;-78
2021/01/21 07:27:58;;;;;;;8.40;7.90;;;9.30;99.90;;;;;;6070426;23;20171;-78
2021/01/21 07:30:26;;;;;;;8.93;8.43;;;9.20;99.90;;;;;;6067955;23;20265;-78
2021/01/21 07:33:22;;;;;;;8.37;7.87;;;9.20;99.90;;;;;;6069418;23;20174;-78
2021/01/21 07:35:49;;;;;;;9.00;8.50;;;9.30;99.90;;;;;;6067634;23;20169;-78
2021/01/21 07:38:47;;;;;;;8.67;8.17;;;9.30;99.90;;;;;;6067461;23;20171;-78
2021/01/21 07:41:51;;;;;;;8.57;8.07;;;9.30;99.90;;;;;;6068048;23;20322;-78
2021/01/21 07:44:18;;;;;;;8.27;7.87;;;9.30;99.90;;;;;;6066255;23;20201;-78
2021/01/21 07:46:44;;;;;;;8.80;8.30;;;9.40;99.90;;;;;;6066878;23;20629;-78
2021/01/21 07:49:25;;;;;;;8.73;8.23;;;9.40;99.90;;;;;;6066558;23;20192;-78
2021/01/21 07:52:02;;;;;;;8.60;8.10;;;9.50;99.90;;;;;;6068369;23;20214;-78
2021/01/21 07:54:29;;;;;;;8.30;7.90;;;9.60;99.90;;;;;;6068194;23;20167;-78
2021/01/21 07:56:55;;;;;;;8.30;7.80;;;9.70;99.90;;;;;;6067646;23;20202;-78
2021/01/21 07:59:21;;;;;;;8.20;7.70;;;9.80;99.90;;;;;;6069290;23;20171;-78
2021/01/21 08:01:58;;;;;;;8.30;7.80;;;9.80;99.90;;;;;;6067525;23;20194;-78
2021/01/21 08:04:25;;;;;;;8.70;8.20;;;9.90;99.90;;;;;;6067893;23;20201;-78
2021/01/21 08:06:56;;;;;;;8.43;7.93;;;10.00;99.90;;;;;;6069433;23;20182;-78
2021/01/21 08:09:22;;;;;;;8.10;7.70;;;10.00;99.90;;;;;;6070865;23;20181;-78
2021/01/21 08:11:50;;;;;;;8.40;8.00;;;10.00;99.90;;;;;;6070180;23;20531;-78
2021/01/21 08:14:17;;;;;;;8.80;8.20;;;10.00;99.90;;;;;;6070169;23;20182;-78
2021/01/21 08:16:44;;;;;;;9.17;8.47;;;10.00;99.90;;;;;;6070170;23;20213;-78
2021/01/21 08:19:10;;;;;;;8.70;8.20;;;10.00;99.90;;;;;;6071997;23;20262;-78
2021/01/21 08:21:37;;;;;;;8.57;8.07;;;10.00;99.90;;;;;;6070158;23;20202;-78
2021/01/21 08:24:08;;;;;;;8.77;8.27;;;10.10;99.90;;;;;;6069841;23;20633;-77
2021/01/21 08:26:35;;;;;;;8.80;8.30;;;10.20;99.90;;;;;;6069456;23;20178;-78
2021/01/21 08:29:01;;;;;;;8.90;8.40;;;10.20;99.90;;;;;;6068006;23;20630;-78
2021/01/21 08:31:36;;;;;;;8.97;8.47;;;10.30;99.90;;;;;;6069265;23;20210;-78
2021/01/21 08:34:03;;;;;;;9.17;8.67;;;10.40;99.90;;;;;;6069329;23;20170;-77
2021/01/21 08:36:30;;;;;;;9.00;8.50;;;10.80;99.90;;;;;;6070537;23;20174;-78
2021/01/21 08:38:58;;;;;;;9.57;8.97;;;10.90;99.90;;;;;;6070386;23;20171;-78
2021/01/21 08:41:25;;;;;;;9.00;8.20;;;11.00;99.90;;;;;;6070448;23;20193;-78
2021/01/21 08:43:52;;;;;;;8.70;8.20;;;11.00;99.90;;;;;;6068739;23;20198;-78
2021/01/21 08:46:21;;;;;;;9.43;8.80;;;11.00;99.90;;;;;;6069822;23;20170;-78
2021/01/21 08:48:48;;;;;;;8.70;8.20;;;11.10;99.90;;;;;;6069329;23;20170;-78
2021/01/21 08:51:35;;;;;;;9.47;8.97;;;11.60;99.90;;;;;;6069004;23;20254;-78
2021/01/21 08:54:16;;;;;;;8.90;8.37;;;12.20;99.90;;;;;;6069547;23;20194;-78
2021/01/21 08:56:42;;;;;;;9.17;8.67;;;12.30;99.90;;;;;;6070655;23;20156;-78
2021/01/21 08:59:26;;;;;;;9.50;9.00;;;12.60;99.90;;;;;;6069125;23;20167;-78
2021/01/21 09:01:52;;;;;;;8.87;8.40;;;12.60;99.90;;;;;;6068026;23;20206;-78
2021/01/21 09:04:26;;;;;;;8.80;8.30;;;12.60;99.90;;;;;;6072420;23;20198;-78
2021/01/21 09:06:55;;;;;;;8.80;8.40;;;12.70;99.90;;;;;;6078628;23;20174;-78
2021/01/21 09:09:27;;;;;;;9.40;8.90;;;12.80;99.90;;;;;;6082387;23;20634;-77
2021/01/21 09:11:53;;;;;;;9.50;9.00;;;12.90;99.90;;;;;;6074758;23;20190;-78
2021/01/21 09:14:19;;;;;;;9.50;8.90;;;12.60;99.90;;;;;;6072133;23;20175;-77
2021/01/21 09:16:47;;;;;;;9.27;8.77;;;12.50;99.90;;;;;;6071213;23;20234;-78
2021/01/21 09:19:15;;;;;;;9.70;9.10;;;12.50;99.90;;;;;;6071899;23;20173;-78
2021/01/21 09:21:57;;;;;;;9.63;9.13;;;12.50;99.90;;;;;;6073580;23;20191;-78
2021/01/21 09:24:24;;;;;;;9.20;8.70;;;12.40;99.90;;;;;;6072216;23;20278;-78
2021/01/21 09:27:10;;;;;;;9.60;9.10;;;12.50;99.90;;;;;;6072662;23;20182;-78
2021/01/21 09:29:47;;;;;;;9.30;8.80;;;12.50;99.90;;;;;;6081459;23;20172;-78
2021/01/21 09:32:13;;;;;;;9.17;8.63;;;12.50;99.90;;;;;;6093925;23;20164;-78
2021/01/21 09:34:51;;;;;;;9.50;8.83;;;12.50;99.90;;;;;;6092422;23;20163;-78
2021/01/21 09:37:17;;;;;;;9.43;8.83;;;12.50;99.90;;;;;;6089412;23;20211;-79
2021/01/21 09:39:44;;;;;;;9.00;8.50;;;12.60;99.90;;;;;;6089719;23;20182;-78
2021/01/21 09:42:11;;;;;;;10.03;9.33;;;12.70;99.90;;;;;;6090950;23;20564;-78
2021/01/21 09:44:37;;;;;;;9.97;9.10;;;12.80;99.90;;;;;;6080484;23;20527;-78
2021/01/21 09:47:03;;;;;;;9.50;8.90;;;13.00;99.90;;;;;;6068616;23;20203;-79
2021/01/21 09:49:30;;;;;;;8.90;8.40;;;13.00;99.90;;;;;;6066715;23;20191;-78
2021/01/21 09:51:56;;;;;;;8.90;8.40;;;13.00;99.90;;;;;;6066873;23;20177;-78
2021/01/21 09:54:22;;;;;;;8.77;8.27;;;12.90;99.90;;;;;;6068440;23;20260;-77
2021/01/21 09:56:51;;;;;;;9.30;8.80;;;12.90;99.90;;;;;;6068437;23;20555;-78
2021/01/21 09:59:18;;;;;;;8.90;8.40;;;12.90;99.90;;;;;;6066515;23;20184;-78
2021/01/21 10:01:44;;;;;;;9.60;9.00;;;12.80;99.90;;;;;;6068893;23;20193;-77
2021/01/21 10:04:10;;;;;;;10.13;9.60;;;12.80;99.90;;;;;;6067473;23;20576;-78
2021/01/21 10:06:37;;;;;;;10.10;9.50;;;12.70;99.90;;;;;;6068957;23;20234;-78
2021/01/21 10:09:03;;;;;;;9.53;9.03;;;12.70;99.90;;;;;;6068646;23;20171;-78
2021/01/21 10:11:29;;;;;;;9.93;9.13;;;12.70;99.90;;;;;;6068681;23;20195;-78
2021/01/21 10:13:56;;;;;;;8.67;8.17;;;12.70;99.90;;;;;;6071126;23;20174;-78
2021/01/21 10:16:23;;;;;;;8.90;8.40;;;12.90;99.90;;;;;;6070353;23;20180;-78
2021/01/21 10:18:49;;;;;;;9.03;8.53;;;13.10;99.90;;;;;;6069261;23;20175;-78
2021/01/21 10:21:15;;;;;;;9.20;8.70;;;13.20;99.90;;;;;;6073541;23;20194;-78
2021/01/21 10:23:42;;;;;;;9.43;8.80;;;13.40;99.90;;;;;;6074633;23;20498;-77
2021/01/21 10:26:08;;;;;;;9.10;8.60;;;13.50;99.90;;;;;;6073904;23;20205;-76
2021/01/21 10:28:34;;;;;;;9.37;8.87;;;13.40;99.90;;;;;;6072586;23;20185;-78
2021/01/21 10:31:00;;;;;;;9.37;8.87;;;13.40;99.90;;;;;;6074226;23;20207;-78
2021/01/21 10:33:28;;;;;;;9.20;8.70;;;13.40;99.90;;;;;;6071858;23;20229;-77
2021/01/21 10:35:54;;;;;;;8.70;8.10;;;13.50;99.90;;;;;;6069866;23;20178;-77
2021/01/21 10:38:20;;;;;;;8.67;8.17;;;13.60;99.90;;;;;;6068082;23;20188;-78
2021/01/21 10:40:47;;;;;;;9.00;8.50;;;13.70;99.90;;;;;;6069330;23;20205;-78
2021/01/21 10:43:13;;;;;;;8.80;8.30;;;13.90;99.90;;;;;;6068818;23;20178;-77
2021/01/21 10:45:39;;;;;;;9.87;9.27;;;13.90;99.90;;;;;;6071125;23;20174;-78
2021/01/21 10:48:07;;;;;;;8.83;8.33;;;13.80;99.90;;;;;;6068093;23;20233;-78
2021/01/21 10:50:34;;;;;;;9.10;8.60;;;13.70;99.90;;;;;;6068684;23;20197;-78
2021/01/21 10:53:00;;;;;;;9.00;8.40;;;13.70;99.90;;;;;;6068647;23;20494;-78
2021/01/21 10:55:26;;;;;;;8.90;8.40;;;13.80;99.90;;;;;;6069543;23;20170;-78
2021/01/21 10:57:53;;;;;;;8.33;7.93;;;13.80;99.90;;;;;;6068998;23;20173;-78
2021/01/21 11:00:21;;;;;;;8.93;8.33;;;13.70;99.90;;;;;;6068913;23;20219;-78
2021/01/21 11:02:47;;;;;;;8.50;7.90;;;13.70;99.90;;;;;;6068609;23;20173;-78
2021/01/21 11:05:15;;;;;;;8.13;7.63;;;13.70;99.90;;;;;;6068626;23;20426;-78
2021/01/21 11:07:42;;;;;;;8.60;8.10;;;13.70;99.90;;;;;;6067959;23;20182;-78
2021/01/21 11:10:09;;;;;;;8.37;7.87;;;13.90;99.90;;;;;;6067506;23;20217;-78
2021/01/21 11:12:35;;;;;;;9.50;8.90;;;14.00;99.90;;;;;;6067651;23;20570;-78
2021/01/21 11:15:02;;;;;;;9.40;8.90;;;14.20;99.90;;;;;;6068360;23;20178;-78
2021/01/21 11:17:28;;;;;;;10.07;9.40;;;14.30;99.90;;;;;;6067658;23;20178;-78
2021/01/21 11:19:55;;;;;;;9.27;8.77;;;14.10;99.90;;;;;;6069235;23;20190;-78
2021/01/21 11:22:22;;;;;;;8.90;8.20;;;14.00;99.90;;;;;;6069121;23;20174;-78
2021/01/21 11:24:49;;;;;;;9.40;8.70;;;13.90;99.90;;;;;;6067676;23;20198;-78
2021/01/21 11:27:15;;;;;;;9.50;9.00;;;13.90;99.90;;;;;;6069423;23;20174;-78
2021/01/21 11:29:43;;;;;;;9.30;8.70;;;14.10;99.90;;;;;;6067095;23;20202;-77
2021/01/21 11:32:09;;;;;;;8.53;7.73;;;14.20;99.90;;;;;;6068290;23;20254;-75
2021/01/21 11:34:35;;;;;;;8.73;8.23;;;14.20;99.90;;;;;;6069902;23;20222;-75
2021/01/21 11:37:02;;;;;;;8.77;8.10;;;14.20;99.90;;;;;;6068518;23;20175;-75
2021/01/21 11:39:28;;;;;;;8.90;8.40;;;14.20;99.90;;;;;;6070906;23;20171;-75
2021/01/21 11:41:55;;;;;;;8.93;8.23;;;14.20;99.90;;;;;;6093593;23;20660;-75
2021/01/21 11:44:22;;;;;;;9.33;8.63;;;14.10;99.90;;;;;;6068462;23;20191;-75
2021/01/21 11:46:48;;;;;;;9.37;8.87;;;14.00;99.90;;;;;;6068677;23;20190;-76
2021/01/21 11:49:14;;;;;;;9.57;8.77;;;13.90;99.90;;;;;;6070659;23;20174;-75
2021/01/21 11:51:41;;;;;;;8.77;8.27;;;13.90;99.90;;;;;;6068988;23;20252;-75
2021/01/21 11:54:07;;;;;;;9.00;8.50;;;13.80;99.90;;;;;;6068796;23;20178;-76
2021/01/21 11:56:33;;;;;;;8.40;8.00;;;13.80;99.90;;;;;;6070752;23;20491;-75
2021/01/21 11:59:01;;;;;;;8.47;7.83;;;13.80;99.90;;;;;;6070969;23;20208;-75
2021/01/21 12:01:27;;;;;;;8.53;8.03;;;13.70;99.90;;;;;;6069504;23;20197;-75
2021/01/21 12:03:54;;;;;;;8.10;7.70;;;13.70;99.90;;;;;;6070564;23;20182;-75
2021/01/21 12:06:20;;;;;;;8.70;8.30;;;13.70;99.90;;;;;;6070747;23;20221;-75
2021/01/21 12:08:46;;;;;;;8.33;7.90;;;13.80;99.90;;;;;;6070641;23;20170;-75
2021/01/21 12:11:13;;;;;;;8.63;8.10;;;13.90;99.90;;;;;;6069567;23;20194;-75
2021/01/21 12:13:39;;;;;;;8.33;7.93;;;14.00;99.90;;;;;;6070902;23;20199;-75
2021/01/21 12:16:06;;;;;;;8.80;8.30;;;14.10;99.90;;;;;;6070482;23;20626;-75
2021/01/21 12:18:33;;;;;;;8.50;8.00;;;14.00;99.90;;;;;;6068554;23;20175;-75
2021/01/21 12:20:59;;;;;;;9.70;9.10;;;14.00;99.90;;;;;;6070302;23;20219;-75
2021/01/21 12:23:25;;;;;;;9.00;8.50;;;13.90;99.90;;;;;;6068278;23;20174;-75
2021/01/21 12:25:53;;;;;;;9.10;8.60;;;13.80;99.90;;;;;;6070025;23;20184;-75
2021/01/21 12:28:19;;;;;;;8.30;7.90;;;13.70;99.90;;;;;;6068784;23;20173;-75
2021/01/21 12:30:45;;;;;;;8.63;8.17;;;13.70;99.90;;;;;;6070688;23;20198;-75
2021/01/21 12:33:13;;;;;;;8.40;7.80;;;13.70;99.90;;;;;;6068708;23;20189;-75
2021/01/21 12:35:39;;;;;;;8.40;7.90;;;13.70;99.90;;;;;;6070853;23;20245;-75
2021/01/21 12:38:05;;;;;;;8.30;7.80;;;13.70;99.90;;;;;;6068829;23;20179;-76
2021/01/21 12:40:31;;;;;;;8.10;7.70;;;13.80;99.90;;;;;;6067539;23;20196;-76
2021/01/21 12:42:58;;;;;;;8.10;7.70;;;13.90;99.90;;;;;;6068773;23;20178;-76
2021/01/21 12:45:24;;;;;;;8.47;7.87;;;13.90;99.90;;;;;;6066559;23;20193;-76
2021/01/21 12:47:50;;;;;;;8.50;8.00;;;14.10;99.90;;;;;;6066989;23;20183;-76
2021/01/21 12:50:17;;;;;;;9.10;8.53;;;14.20;99.90;;;;;;6067635;23;20487;-76
2021/01/21 12:52:44;;;;;;;9.10;8.60;;;14.30;99.90;;;;;;6067652;23;20179;-76
2021/01/21 12:55:11;;;;;;;9.10;8.60;;;14.20;99.90;;;;;;6068795;23;20171;-76
2021/01/21 12:57:37;;;;;;;9.00;8.50;;;14.10;99.90;;;;;;6069498;23;20202;-76
2021/01/21 13:00:07;;;;;;;8.70;8.20;;;14.00;99.90;;;;;;6070730;23;20213;-75
2021/01/21 13:02:33;;;;;;;8.50;8.10;;;13.90;99.90;;;;;;6070627;23;20524;-75
2021/01/21 13:05:00;;;;;;;9.00;8.50;;;13.90;99.90;;;;;;6070064;23;20195;-75